Time;durP1;ratioP1;P1;durP2;ratioP2;P2;SDS_P1;SDS_P2;PMS_P1;PMS_P2;Temp;Humidity;BMP_temperature;BMP_pressure;BME280_temperature;BME280_humidity;BME280_pressure;Samples;Min_cycle;Max_cycle;Signal;HPM_P1;HPM_P2
2022/09/18 00:01:11;;;;;;;14.95;2.55;;;;;;;9.35;100.00;100481.59;5030747;28;20196;-46
2022/09/18 00:03:38;;;;;;;16.45;2.20;;;;;;;9.34;100.00;100469.16;5034708;28;20779;-44
2022/09/18 00:06:15;;;;;;;14.45;2.58;;;;;;;9.35;100.00;100479.78;5030742;28;20200;-45
2022/09/18 00:08:42;;;;;;;12.13;2.33;;;;;;;9.39;100.00;100473.38;5032241;28;20227;-43
2022/09/18 00:11:10;;;;;;;15.43;2.10;;;;;;;9.41;100.00;100476.00;5031950;28;20603;-45
2022/09/18 00:13:37;;;;;;;18.27;2.92;;;;;;;9.44;100.00;100467.84;5031211;28;20180;-44
2022/09/18 00:16:04;;;;;;;15.07;2.33;;;;;;;9.40;100.00;100460.88;5031300;28;20207;-44
2022/09/18 00:18:29;;;;;;;13.48;2.35;;;;;;;9.43;100.00;100469.66;5030907;28;20752;-47
2022/09/18 00:21:01;;;;;;;20.80;2.92;;;;;;;9.39;100.00;100473.38;5031248;28;20204;-43
2022/09/18 00:23:28;;;;;;;14.70;2.67;;;;;;;9.41;100.00;100468.84;5031063;28;20238;-43
2022/09/18 00:25:53;;;;;;;14.88;2.70;;;;;;;9.37;100.00;100458.34;5038819;28;20175;-49
2022/09/18 00:28:18;;;;;;;14.27;2.80;;;;;;;9.34;100.00;100462.00;5049588;28;20202;-44
2022/09/18 00:30:44;;;;;;;17.00;2.22;;;;;;;9.39;100.00;100453.81;5049275;28;20556;-45
2022/09/18 00:33:10;;;;;;;15.15;2.30;;;;;;;9.39;100.00;100460.00;5050860;28;20176;-46
2022/09/18 00:35:42;;;;;;;16.15;2.60;;;;;;;9.39;100.00;100468.03;5040910;28;20192;-47
2022/09/18 00:38:07;;;;;;;12.13;2.88;;;;;;;9.47;100.00;100465.94;5046208;28;20214;-44
2022/09/18 00:40:33;;;;;;;13.82;2.63;;;;;;;9.41;100.00;100471.53;5030902;28;20169;-44
2022/09/18 00:43:18;;;;;;;10.90;2.17;;;;;;;9.40;100.00;100480.50;5029226;28;20198;-47
2022/09/18 00:45:52;;;;;;;16.42;2.78;;;;;;;9.46;100.00;100474.88;5039068;28;20214;-47
2022/09/18 00:48:17;;;;;;;16.90;2.50;;;;;;;9.47;100.00;100476.63;5050292;28;20192;-44
2022/09/18 00:50:43;;;;;;;15.48;2.42;;;;;;;9.53;100.00;100472.84;5065983;28;20179;-46
2022/09/18 00:53:10;;;;;;;13.63;2.22;;;;;;;9.56;100.00;100482.56;5049038;28;20284;-46
2022/09/18 00:55:41;;;;;;;8.55;1.95;;;;;;;9.53;100.00;100485.34;5050607;28;20172;-43
2022/09/18 00:58:08;;;;;;;17.05;3.35;;;;;;;9.53;100.00;100474.63;5037470;28;20690;-47
2022/09/18 01:00:33;;;;;;;11.23;2.17;;;;;;;9.49;100.00;100476.59;5028958;28;20271;-45
2022/09/18 01:03:00;;;;;;;15.18;2.38;;;;;;;9.49;100.00;100471.25;5029175;28;20615;-49
2022/09/18 01:05:28;;;;;;;8.23;1.75;;;;;;;9.49;100.00;100473.91;5028710;28;20172;-47
2022/09/18 01:08:02;;;;;;;10.48;2.30;;;;;;;9.45;100.00;100480.31;5030371;28;20686;-44
2022/09/18 01:10:43;;;;;;;13.90;2.25;;;;;;;9.41;100.00;100465.31;5028898;28;20705;-44
2022/09/18 01:13:19;;;;;;;15.57;2.95;;;;;;;9.40;100.00;100467.13;5028885;28;20221;-43
2022/09/18 01:16:23;;;;;;;12.52;2.50;;;;;;;9.47;100.00;100475.78;5028876;28;20164;-46
2022/09/18 01:19:09;;;;;;;13.63;2.47;;;;;;;9.45;100.00;100473.16;5021312;28;20217;-45
2022/09/18 01:21:47;;;;;;;15.45;2.78;;;;;;;9.41;100.00;100466.19;5040751;28;20179;-43
2022/09/18 01:24:31;;;;;;;11.80;2.67;;;;;;;9.34;100.00;100471.84;5058082;28;20638;-43
2022/09/18 01:27:08;;;;;;;15.57;2.78;;;;;;;9.40;100.00;100468.91;5050073;28;20170;-44
2022/09/18 01:29:46;;;;;;;11.45;2.60;;;;;;;9.52;100.00;100472.91;5065177;28;20194;-44
2022/09/18 01:32:23;;;;;;;14.68;2.78;;;;;;;9.48;100.00;100465.00;5048664;28;20699;-44
2022/09/18 01:35:15;;;;;;;13.13;2.58;;;;;;;9.51;100.00;100468.47;5048623;28;20167;-46
2022/09/18 01:37:50;;;;;;;11.32;2.33;;;;;;;9.53;100.00;100464.81;5020805;28;20564;-45
2022/09/18 01:40:31;;;;;;;11.63;2.35;;;;;;;9.46;100.00;100457.97;5065324;28;20625;-44
2022/09/18 01:43:01;;;;;;;9.70;2.38;;;;;;;9.53;100.00;100459.47;5048477;28;20588;-43
2022/09/18 01:45:50;;;;;;;10.02;1.80;;;;;;;9.52;100.00;100463.09;5048385;28;20250;-45
2022/09/18 01:48:32;;;;;;;12.32;2.20;;;;;;;9.59;100.00;100459.22;5065150;28;20251;-49
2022/09/18 01:51:08;;;;;;;12.93;2.95;;;;;;;9.59;100.00;100463.72;5048685;28;20219;-44
2022/09/18 01:53:41;;;;;;;12.48;2.45;;;;;;;9.58;100.00;100445.94;5065302;28;20320;-41
2022/09/18 01:56:21;;;;;;;16.15;2.38;;;;;;;9.57;100.00;100455.72;5048337;28;20330;-42
2022/09/18 01:58:49;;;;;;;12.38;2.15;;;;;;;9.58;100.00;100451.28;5048326;28;20211;-45
2022/09/18 02:01:20;;;;;;;17.30;2.80;;;;;;;9.52;100.00;100449.72;5048531;28;20163;-44
2022/09/18 02:03:52;;;;;;;9.00;2.08;;;;;;;9.41;100.00;100451.94;5048307;28;20631;-44
2022/09/18 02:06:25;;;;;;;14.35;2.90;;;;;;;9.42;100.00;100451.91;5048429;28;20168;-42
2022/09/18 02:08:54;;;;;;;17.20;2.63;;;;;;;9.38;100.00;100450.25;5049575;28;20629;-45
2022/09/18 02:11:22;;;;;;;16.20;2.92;;;;;;;9.38;100.00;100452.03;5048269;28;20195;-45
2022/09/18 02:14:10;;;;;;;14.95;2.40;;;;;;;9.44;100.00;100462.50;5048260;28;20623;-46
2022/09/18 02:16:58;;;;;;;14.98;2.47;;;;;;;9.38;100.00;100458.28;5027780;28;20199;-49
2022/09/18 02:19:29;;;;;;;13.60;2.80;;;;;;;9.34;100.00;100451.31;5027946;28;20295;-49
2022/09/18 02:21:58;;;;;;;12.65;2.00;;;;;;;9.45;100.00;100461.59;5029538;28;20717;-43
2022/09/18 02:24:28;;;;;;;11.10;2.20;;;;;;;9.39;100.00;100454.66;5028248;28;20619;-44
2022/09/18 02:26:55;;;;;;;12.07;2.80;;;;;;;9.47;100.00;100457.91;5028005;28;20685;-44
2022/09/18 02:29:22;;;;;;;10.20;2.28;;;;;;;9.45;100.00;100466.94;5032956;28;20200;-44
2022/09/18 02:31:49;;;;;;;12.93;2.88;;;;;;;9.49;100.00;100457.88;5031960;28;20200;-44
2022/09/18 02:34:17;;;;;;;12.65;2.88;;;;;;;9.39;100.00;100462.69;5031613;28;20176;-45
2022/09/18 02:37:11;;;;;;;18.25;2.50;;;;;;;9.41;100.00;100458.16;5034756;28;20257;-46
2022/09/18 02:39:54;;;;;;;18.63;2.58;;;;;;;9.42;100.00;100454.56;5068203;28;20207;-44
2022/09/18 02:42:57;;;;;;;17.98;2.58;;;;;;;9.44;100.00;100457.16;5068545;28;20228;-43
2022/09/18 02:45:45;;;;;;;12.35;2.50;;;;;;;9.39;100.00;100454.66;5068002;28;20185;-43
2022/09/18 02:48:50;;;;;;;14.05;3.17;;;;;;;9.39;100.00;100441.31;5056147;28;20745;-47
2022/09/18 02:51:42;;;;;;;16.13;2.65;;;;;;;9.46;100.00;100444.59;5010332;28;20235;-47
2022/09/18 02:54:29;;;;;;;14.75;2.53;;;;;;;9.35;100.00;100461.06;5011945;28;20234;-44
2022/09/18 02:57:12;;;;;;;14.63;2.45;;;;;;;9.42;100.00;100453.66;5034947;28;20218;-48
2022/09/18 02:59:46;;;;;;;12.95;2.53;;;;;;;9.41;100.00;100442.09;5031344;28;20250;-45
2022/09/18 03:02:13;;;;;;;15.88;2.22;;;;;;;9.41;100.00;100438.56;5030888;28;20278;-45
2022/09/18 03:04:40;;;;;;;11.95;2.58;;;;;;;9.30;100.00;100439.00;5045285;28;20192;-44
2022/09/18 03:07:13;;;;;;;15.13;2.10;;;;;;;9.27;100.00;100441.78;5068119;28;20202;-47
2022/09/18 03:09:42;;;;;;;12.55;2.25;;;;;;;9.26;100.00;100440.03;5048409;28;20556;-44
2022/09/18 03:12:07;;;;;;;14.60;2.28;;;;;;;9.25;100.00;100432.97;5067821;28;20298;-44
2022/09/18 03:14:37;;;;;;;13.30;2.55;;;;;;;9.26;100.00;100437.38;5067654;28;20592;-44
2022/09/18 03:17:04;;;;;;;14.07;2.35;;;;;;;9.28;100.00;100430.16;5068016;28;20262;-46
2022/09/18 03:19:30;;;;;;;9.00;2.13;;;;;;;9.25;100.00;100435.66;5051086;28;20684;-47
2022/09/18 03:21:57;;;;;;;9.50;1.88;;;;;;;9.20;100.00;100441.13;5067849;28;20174;-44
2022/09/18 03:24:24;;;;;;;8.88;1.80;;;;;;;9.17;100.00;100429.72;5052662;28;20159;-48
2022/09/18 03:26:51;;;;;;;10.88;1.73;;;;;;;9.07;100.00;100431.84;5067572;28;20179;-48
2022/09/18 03:29:19;;;;;;;6.25;1.70;;;;;;;9.13;100.00;100428.94;5065926;28;20222;-46
2022/09/18 03:31:46;;;;;;;10.80;2.03;;;;;;;9.10;100.00;100428.22;5040095;28;20321;-47
2022/09/18 03:34:11;;;;;;;9.10;1.75;;;;;;;9.12;100.00;100431.66;5037911;28;20188;-46
2022/09/18 03:36:37;;;;;;;9.32;1.50;;;;;;;9.18;100.00;100423.44;5045220;28;20271;-45
2022/09/18 03:39:04;;;;;;;6.50;1.30;;;;;;;9.11;100.00;100422.78;5048249;28;20208;-47
2022/09/18 03:41:30;;;;;;;10.50;1.90;;;;;;;9.14;100.00;100422.69;5045260;28;20661;-48
2022/09/18 03:43:56;;;;;;;9.05;1.92;;;;;;;9.18;100.00;100415.41;5045390;28;20194;-46
2022/09/18 03:46:22;;;;;;;7.68;1.85;;;;;;;9.13;100.00;100422.75;5047387;28;20193;-46
2022/09/18 03:48:51;;;;;;;7.72;1.63;;;;;;;9.11;100.00;100429.94;5054395;28;20293;-46
2022/09/18 03:51:17;;;;;;;7.80;1.63;;;;;;;9.12;100.00;100426.31;5050711;28;20663;-46
2022/09/18 03:53:44;;;;;;;13.82;1.60;;;;;;;9.06;100.00;100439.00;5031721;28;20187;-46
2022/09/18 03:56:24;;;;;;;6.97;1.35;;;;;;;9.05;100.00;100433.72;5033837;28;20198;-47
2022/09/18 03:59:08;;;;;;;6.30;1.30;;;;;;;8.98;100.00;100432.22;5042828;28;20581;-47
2022/09/18 04:01:54;;;;;;;7.53;1.60;;;;;;;8.98;100.00;100419.72;5034188;28;20272;-46
2022/09/18 04:04:26;;;;;;;4.80;1.25;;;;;;;8.97;100.00;100425.13;5036941;28;20200;-47
2022/09/18 04:07:10;;;;;;;4.43;1.13;;;;;;;8.95;100.00;100427.00;5039120;28;20198;-47
2022/09/18 04:10:14;;;;;;;7.53;1.58;;;;;;;8.93;100.00;100435.06;5039798;28;20199;-46
2022/09/18 04:12:39;;;;;;;5.57;1.20;;;;;;;8.92;100.00;100429.78;5061020;28;20210;-47
2022/09/18 04:15:17;;;;;;;5.25;1.30;;;;;;;8.94;100.00;100433.25;5053773;28;20187;-47
2022/09/18 04:17:46;;;;;;;7.53;1.35;;;;;;;9.05;100.00;100423.03;5046646;28;20241;-46
2022/09/18 04:20:12;;;;;;;11.10;1.80;;;;;;;8.99;100.00;100428.63;5048772;28;20240;-46
2022/09/18 04:22:38;;;;;;;7.47;1.35;;;;;;;9.01;100.00;100435.66;5046498;28;20632;-48
2022/09/18 04:25:04;;;;;;;8.68;1.52;;;;;;;8.95;100.00;100433.22;5044691;28;20199;-48
2022/09/18 04:27:29;;;;;;;9.75;1.65;;;;;;;8.85;100.00;100437.16;5049829;28;20281;-46
2022/09/18 04:29:55;;;;;;;6.00;1.40;;;;;;;8.86;100.00;100439.78;5038250;28;20290;-46
2022/09/18 04:32:21;;;;;;;6.85;1.23;;;;;;;8.92;100.00;100452.03;5033900;28;20211;-47
2022/09/18 04:34:47;;;;;;;6.65;1.38;;;;;;;8.88;100.00;100439.72;5034358;28;20192;-47
2022/09/18 04:37:13;;;;;;;8.20;1.42;;;;;;;8.91;100.00;100436.91;5047333;28;20938;-46
2022/09/18 04:39:39;;;;;;;8.73;1.60;;;;;;;8.98;100.00;100446.44;5046060;28;20214;-48
2022/09/18 04:42:04;;;;;;;7.10;1.50;;;;;;;9.00;100.00;100433.88;5034445;28;20182;-49
2022/09/18 04:44:30;;;;;;;9.90;1.77;;;;;;;8.99;100.00;100433.97;5045324;28;20189;-47
2022/09/18 04:46:56;;;;;;;10.02;1.95;;;;;;;9.00;100.00;100427.69;5040486;28;20206;-50
2022/09/18 04:49:22;;;;;;;9.65;1.92;;;;;;;9.10;100.00;100439.78;5042750;28;20662;-47
2022/09/18 04:51:48;;;;;;;6.93;1.60;;;;;;;9.01;100.00;100440.13;5038659;28;20242;-48
2022/09/18 04:54:14;;;;;;;10.77;1.67;;;;;;;9.03;100.00;100431.13;5035789;28;20188;-47
2022/09/18 04:56:41;;;;;;;8.35;1.92;;;;;;;9.04;100.00;100437.31;5040053;28;20215;-46
2022/09/18 04:59:06;;;;;;;5.00;1.33;;;;;;;8.95;100.00;100429.66;5064643;28;20229;-49
2022/09/18 05:01:34;;;;;;;7.53;1.40;;;;;;;8.96;100.00;100426.91;5029300;28;20179;-47
2022/09/18 05:04:06;;;;;;;7.43;1.52;;;;;;;8.96;100.00;100424.25;5028947;28;20247;-45
2022/09/18 05:06:49;;;;;;;7.53;1.50;;;;;;;8.98;100.00;100427.72;5034516;28;20222;-46
2022/09/18 05:09:16;;;;;;;9.80;1.63;;;;;;;8.94;100.00;100418.09;5045305;28;20214;-44
2022/09/18 05:11:41;;;;;;;11.93;1.60;;;;;;;9.02;100.00;100412.47;5045462;28;20204;-45
2022/09/18 05:14:07;;;;;;;6.28;1.23;;;;;;;9.15;100.00;100423.56;5045305;28;20686;-48
2022/09/18 05:16:33;;;;;;;6.78;1.50;;;;;;;9.17;100.00;100421.69;5045595;28;20656;-48
2022/09/18 05:19:26;;;;;;;7.07;1.20;;;;;;;9.12;100.00;100418.31;5030215;28;20257;-46
2022/09/18 05:21:58;;;;;;;8.52;1.98;;;;;;;9.18;100.00;100426.09;5045228;28;20183;-45
2022/09/18 05:24:23;;;;;;;9.40;1.95;;;;;;;9.27;100.00;100425.72;5045225;28;20259;-47
2022/09/18 05:26:49;;;;;;;5.38;1.50;;;;;;;9.31;100.00;100427.34;5045092;28;20172;-49
2022/09/18 05:29:18;;;;;;;7.35;1.88;;;;;;;9.35;100.00;100422.78;5045469;28;20257;-46
2022/09/18 05:31:44;;;;;;;16.83;1.55;;;;;;;9.40;100.00;100435.03;5054134;28;20619;-47
2022/09/18 05:34:09;;;;;;;10.23;1.85;;;;;;;9.47;100.00;100436.53;5048513;28;20325;-44
2022/09/18 05:36:35;;;;;;;9.82;1.77;;;;;;;9.49;100.00;100433.81;5048574;28;20194;-46
2022/09/18 05:39:00;;;;;;;7.30;1.33;;;;;;;9.55;100.00;100438.88;5049402;28;20211;-45
2022/09/18 05:41:27;;;;;;;7.80;1.50;;;;;;;9.53;100.00;100443.41;5048395;28;20591;-45
2022/09/18 05:43:52;;;;;;;7.93;1.40;;;;;;;9.59;100.00;100436.97;5048185;28;20230;-49
2022/09/18 05:46:18;;;;;;;10.38;1.60;;;;;;;9.54;100.00;100444.31;5065203;28;20567;-45
2022/09/18 05:48:51;;;;;;;9.55;1.52;;;;;;;9.54;100.00;100437.16;5049652;28;20727;-45
2022/09/18 05:51:18;;;;;;;5.05;1.17;;;;;;;9.69;100.00;100438.34;5049339;28;20287;-42
2022/09/18 05:53:47;;;;;;;7.65;1.60;;;;;;;9.68;100.00;100439.25;5049564;28;20662;-45
2022/09/18 05:56:22;;;;;;;10.73;1.70;;;;;;;9.52;100.00;100435.47;5048186;28;20190;-44
2022/09/18 05:58:47;;;;;;;7.28;1.90;;;;;;;9.35;100.00;100437.00;5045288;28;20633;-45
2022/09/18 06:01:13;;;;;;;8.35;2.20;;;;;;;9.22;100.00;100444.63;5029726;28;20251;-45
2022/09/18 06:04:02;;;;;;;7.60;1.40;;;;;;;9.41;100.00;100438.56;5032638;28;20196;-44
2022/09/18 06:06:36;;;;;;;10.55;1.63;;;;;;;9.64;100.00;100434.97;5050350;28;20259;-47
2022/09/18 06:09:02;;;;;;;7.47;1.40;;;;;;;9.51;100.00;100437.28;5033761;28;20253;-43
2022/09/18 06:11:28;;;;;;;8.77;1.83;;;;;;;9.51;100.00;100431.94;5033639;28;20207;-44
2022/09/18 06:13:53;;;;;;;8.50;1.73;;;;;;;9.46;100.00;100426.75;5035401;28;20188;-47
2022/09/18 06:16:19;;;;;;;13.50;2.42;;;;;;;9.50;100.00;100440.88;5032498;28;20202;-43
2022/09/18 06:18:53;;;;;;;8.32;1.70;;;;;;;9.60;100.00;100430.66;5032449;28;20577;-44
2022/09/18 06:21:20;;;;;;;10.05;1.52;;;;;;;9.46;100.00;100434.75;5052097;28;20190;-44
2022/09/18 06:23:45;;;;;;;7.25;2.00;;;;;;;9.55;100.00;100435.34;5049086;28;20184;-43
2022/09/18 06:26:23;;;;;;;8.02;1.58;;;;;;;9.90;100.00;100437.47;5044616;28;20484;-46
2022/09/18 06:28:50;;;;;;;9.95;1.60;;;;;;;9.96;100.00;100430.09;5038989;28;20299;-46
2022/09/18 06:31:16;;;;;;;10.02;2.17;;;;;;;10.14;100.00;100434.66;5034367;28;20837;-42
2022/09/18 06:34:04;;;;;;;10.35;1.90;;;;;;;10.00;100.00;100431.72;5034904;28;20195;-47
2022/09/18 06:36:29;;;;;;;10.00;2.28;;;;;;;9.76;100.00;100430.94;5068502;28;20281;-43
2022/09/18 06:39:24;;;;;;;8.30;2.00;;;;;;;10.03;100.00;100436.91;5033516;28;20204;-46
2022/09/18 06:41:54;;;;;;;12.85;2.03;;;;;;;10.50;100.00;100431.38;5052088;28;20737;-43
2022/09/18 06:44:30;;;;;;;11.85;2.30;;;;;;;10.60;100.00;100421.09;5052508;28;20221;-43
2022/09/18 06:47:04;;;;;;;11.13;2.03;;;;;;;10.68;100.00;100429.66;5034859;28;20269;-43
2022/09/18 06:49:37;;;;;;;7.75;1.77;;;;;;;10.91;100.00;100432.16;5050387;28;20328;-44
2022/09/18 06:52:03;;;;;;;6.95;1.80;;;;;;;11.20;98.23;100423.72;5059027;28;20199;-44
2022/09/18 06:54:30;;;;;;;11.82;1.90;;;;;;;11.23;96.77;100427.09;5031593;28;20566;-43
2022/09/18 06:56:56;;;;;;;10.93;2.00;;;;;;;11.37;95.48;100422.88;5048348;28;20177;-43
2022/09/18 06:59:22;;;;;;;7.65;2.03;;;;;;;11.62;94.39;100423.44;5031670;28;20200;-43
2022/09/18 07:01:50;;;;;;;13.40;1.92;;;;;;;11.74;93.21;100422.84;5054457;28;20202;-45
2022/09/18 07:04:40;;;;;;;9.95;2.00;;;;;;;11.84;92.48;100428.63;5031437;28;20175;-45
2022/09/18 07:07:07;;;;;;;9.00;2.05;;;;;;;11.95;92.18;100433.47;5047736;28;20172;-45
2022/09/18 07:09:32;;;;;;;12.02;2.40;;;;;;;12.16;91.14;100426.16;5048140;28;20266;-44
2022/09/18 07:12:04;;;;;;;9.43;1.70;;;;;;;12.05;90.74;100433.91;5040306;28;20399;-45
2022/09/18 07:14:52;;;;;;;10.25;2.03;;;;;;;12.21;89.97;100437.53;5045155;28;20192;-43
2022/09/18 07:17:18;;;;;;;10.65;2.20;;;;;;;12.17;90.38;100438.63;5047830;28;20176;-43
2022/09/18 07:19:46;;;;;;;6.93;2.13;;;;;;;12.43;90.20;100426.53;5058127;28;20214;-44
2022/09/18 07:22:13;;;;;;;8.05;2.00;;;;;;;12.57;89.12;100423.09;5058326;28;20176;-46
2022/09/18 07:24:42;;;;;;;13.15;2.17;;;;;;;12.46;88.76;100428.19;5026247;28;20184;-45
2022/09/18 07:27:08;;;;;;;14.52;2.55;;;;;;;12.58;88.14;100425.72;5037891;28;20187;-43
2022/09/18 07:29:34;;;;;;;9.93;2.33;;;;;;;12.26;87.99;100435.47;5063589;28;20207;-44
2022/09/18 07:32:00;;;;;;;9.30;2.03;;;;;;;12.57;87.51;100433.84;5048032;28;20625;-43
2022/09/18 07:34:26;;;;;;;9.10;2.15;;;;;;;12.40;87.33;100426.72;5046567;28;20607;-43
2022/09/18 07:36:53;;;;;;;11.77;1.90;;;;;;;12.35;88.12;100412.63;5047435;28;20278;-44
2022/09/18 07:39:21;;;;;;;9.73;1.88;;;;;;;11.90;88.99;100428.34;5047113;28;20222;-48
2022/09/18 07:42:06;;;;;;;10.40;1.85;;;;;;;12.46;88.24;100420.13;5050428;28;20190;-45
2022/09/18 07:44:33;;;;;;;8.27;1.67;;;;;;;12.70;88.02;100400.03;5056346;28;20684;-45
2022/09/18 07:47:01;;;;;;;8.82;1.77;;;;;;;12.99;86.53;100402.94;5042493;28;20183;-44
2022/09/18 07:49:28;;;;;;;10.65;1.67;;;;;;;12.96;84.58;100405.78;5067139;28;20498;-45
2022/09/18 07:51:55;;;;;;;10.70;1.80;;;;;;;12.76;82.44;100401.50;5051263;28;20238;-44
2022/09/18 07:54:20;;;;;;;8.57;1.73;;;;;;;13.21;81.71;100413.38;5045092;28;20572;-44
2022/09/18 07:56:56;;;;;;;7.55;1.40;;;;;;;13.18;81.37;100408.16;5035194;28;20199;-45
2022/09/18 07:59:25;;;;;;;10.32;1.70;;;;;;;12.58;80.72;100400.69;5084117;28;20743;-48
2022/09/18 08:01:56;;;;;;;9.65;1.50;;;;;;;12.75;80.41;100405.16;5061002;28;20545;-44
2022/09/18 08:04:24;;;;;;;5.10;1.27;;;;;;;12.92;79.01;100412.28;5032547;28;20198;-48
2022/09/18 08:07:12;;;;;;;5.22;1.60;;;;;;;13.18;80.04;100402.78;5028466;28;20347;-46
2022/09/18 08:10:06;;;;;;;6.95;1.95;;;;;;;13.23;78.36;100414.16;5030741;28;20199;-46
2022/09/18 08:12:42;;;;;;;7.13;1.42;;;;;;;13.24;78.12;100415.03;5040287;28;20277;-48
2022/09/18 08:15:39;;;;;;;6.65;1.50;;;;;;;13.40;77.68;100424.00;5031411;28;20188;-45
2022/09/18 08:18:25;;;;;;;7.13;1.52;;;;;;;13.71;76.93;100424.94;5022241;28;20212;-43
2022/09/18 08:21:17;;;;;;;11.20;1.73;;;;;;;13.71;77.16;100423.13;5035845;28;20223;-46
2022/09/18 08:23:49;;;;;;;5.38;1.63;;;;;;;13.31;76.81;100421.81;5055283;28;20192;-48
2022/09/18 08:26:14;;;;;;;8.45;1.73;;;;;;;13.39;76.65;100417.75;5053511;28;20188;-42
2022/09/18 08:28:41;;;;;;;6.13;1.73;;;;;;;13.43;74.09;100412.22;5047480;28;20425;-47
2022/09/18 08:31:06;;;;;;;7.30;1.77;;;;;;;13.48;74.22;100416.34;5066312;28;20701;-44
2022/09/18 08:33:32;;;;;;;7.22;1.33;;;;;;;13.56;74.03;100411.41;5049558;28;20178;-45
2022/09/18 08:35:59;;;;;;;6.60;1.40;;;;;;;13.27;73.74;100412.16;5054666;28;20259;-42
2022/09/18 08:38:36;;;;;;;5.45;1.50;;;;;;;13.69;73.73;100405.34;5029643;28;20222;-45
2022/09/18 08:41:38;;;;;;;8.00;1.65;;;;;;;13.70;74.90;100398.97;5031338;28;20187;-45
2022/09/18 08:44:12;;;;;;;8.80;2.00;;;;;;;13.66;74.70;100403.66;5029411;28;20187;-44
2022/09/18 08:46:44;;;;;;;6.28;1.60;;;;;;;13.56;73.26;100397.94;5029909;28;20643;-45
2022/09/18 08:49:29;;;;;;;4.72;1.23;;;;;;;13.32;74.23;100404.75;5046177;28;20340;-46
2022/09/18 08:52:09;;;;;;;6.57;1.75;;;;;;;13.64;73.97;100392.09;5029523;28;20293;-43
2022/09/18 08:54:54;;;;;;;5.50;1.65;;;;;;;14.12;74.47;100384.78;5045923;28;20187;-43
2022/09/18 08:57:40;;;;;;;7.15;1.50;;;;;;;14.00;72.30;100383.69;5029287;28;20356;-46
2022/09/18 09:00:20;;;;;;;4.25;1.02;;;;;;;13.99;71.46;100381.09;5046210;28;20176;-46
2022/09/18 09:03:27;;;;;;;1.88;0.52;;;;;;;13.98;69.51;100388.31;5031842;28;20192;-48
2022/09/18 09:06:21;;;;;;;2.67;0.68;;;;;;;13.78;69.33;100383.25;5040753;28;20187;-51
2022/09/18 09:09:23;;;;;;;1.92;0.70;;;;;;;13.25;70.54;100382.66;5007470;28;20314;-46
2022/09/18 09:12:28;;;;;;;2.28;0.90;;;;;;;12.91;70.14;100386.34;5020271;28;20226;-50
2022/09/18 09:15:22;;;;;;;2.20;0.70;;;;;;;12.48;70.67;100386.84;5043834;28;20218;-52
2022/09/18 09:18:04;;;;;;;3.85;0.75;;;;;;;12.84;71.66;100383.13;5045869;28;20327;-46
2022/09/18 09:20:35;;;;;;;4.07;1.00;;;;;;;13.23;72.68;100389.06;5058920;28;20732;-51
2022/09/18 09:23:34;;;;;;;4.53;1.30;;;;;;;13.32;71.67;100377.84;5044361;28;20560;-46
2022/09/18 09:26:17;;;;;;;5.03;0.90;;;;;;;13.20;71.67;100384.72;5035984;28;20181;-48
2022/09/18 09:29:18;;;;;;;3.65;1.20;;;;;;;13.50;71.53;100383.97;5052387;28;20694;-46
2022/09/18 09:32:15;;;;;;;3.75;0.80;;;;;;;13.37;71.57;100381.97;5031032;28;20238;-49
2022/09/18 09:35:24;;;;;;;4.57;1.08;;;;;;;13.62;70.86;100374.31;5043424;28;20188;-49
2022/09/18 09:38:12;;;;;;;2.17;0.95;;;;;;;12.87;72.18;100360.59;5040348;28;20235;-49
2022/09/18 09:40:43;;;;;;;3.88;1.00;;;;;;;12.99;72.93;100368.00;5055235;28;20183;-49
2022/09/18 09:43:32;;;;;;;4.95;0.98;;;;;;;13.16;72.21;100367.91;5053418;28;20202;-50
2022/09/18 09:46:26;;;;;;;4.40;0.90;;;;;;;13.10;71.28;100376.31;5049519;28;20180;-50
2022/09/18 09:49:15;;;;;;;4.40;1.17;;;;;;;13.58;71.29;100371.81;5052873;28;20222;-47
2022/09/18 09:51:49;;;;;;;3.13;0.80;;;;;;;13.64;70.61;100362.50;5034310;28;20240;-47
2022/09/18 09:54:15;;;;;;;4.70;1.05;;;;;;;13.53;71.12;100352.34;5054448;28;20178;-47
2022/09/18 09:56:54;;;;;;;2.65;1.02;;;;;;;13.72;70.53;100345.91;5046111;28;20270;-48
2022/09/18 09:59:28;;;;;;;7.13;1.55;;;;;;;13.32;71.05;100357.16;5053850;28;20207;-48
2022/09/18 10:02:24;;;;;;;3.72;1.20;;;;;;;13.36;71.88;100352.50;5045382;28;20191;-47
2022/09/18 10:05:10;;;;;;;4.43;1.05;;;;;;;13.60;71.39;100348.38;5041824;28;20190;-47
2022/09/18 10:07:45;;;;;;;6.65;1.35;;;;;;;13.93;70.62;100339.25;5046638;28;20287;-48
2022/09/18 10:10:29;;;;;;;5.43;1.30;;;;;;;14.15;70.33;100343.34;5053744;28;20187;-48
2022/09/18 10:13:16;;;;;;;5.10;1.17;;;;;;;14.02;69.98;100345.91;5037626;28;20198;-48
2022/09/18 10:15:45;;;;;;;4.32;1.10;;;;;;;13.32;70.06;100357.16;5047149;28;20192;-50
2022/09/18 10:18:20;;;;;;;4.72;1.30;;;;;;;13.01;71.31;100354.44;5052245;28;20214;-47
2022/09/18 10:20:49;;;;;;;5.00;1.00;;;;;;;12.67;73.21;100356.31;5050393;28;20195;-48
2022/09/18 10:23:30;;;;;;;4.40;1.10;;;;;;;12.25;74.08;100371.97;5039279;28;20279;-46
2022/09/18 10:26:00;;;;;;;4.63;0.90;;;;;;;12.56;74.53;100373.03;5050637;28;20655;-49
2022/09/18 10:28:28;;;;;;;1.77;0.65;;;;;;;12.19;75.21;100366.91;5043074;28;20212;-52
2022/09/18 10:31:04;;;;;;;2.72;0.70;;;;;;;12.34;73.21;100365.25;5039839;28;20294;-49
2022/09/18 10:33:44;;;;;;;5.13;0.90;;;;;;;12.66;73.06;100370.69;5049304;28;20646;-48
2022/09/18 10:36:36;;;;;;;6.45;0.75;;;;;;;13.24;69.89;100363.91;5048972;28;20743;-48
2022/09/18 10:39:32;;;;;;;3.22;0.82;;;;;;;13.85;68.93;100357.69;5045348;28;20212;-46
2022/09/18 10:42:12;;;;;;;3.45;0.80;;;;;;;13.71;68.74;100352.22;5039138;28;20283;-51
2022/09/18 10:44:48;;;;;;;2.70;0.82;;;;;;;13.67;69.09;100358.78;5047370;28;20196;-46
2022/09/18 10:47:22;;;;;;;1.77;0.95;;;;;;;13.88;68.73;100367.41;5053691;28;20661;-47
2022/09/18 10:49:57;;;;;;;4.22;0.70;;;;;;;14.14;68.88;100365.84;5051566;28;20183;-49
2022/09/18 10:52:36;;;;;;;5.13;1.23;;;;;;;13.71;68.72;100363.00;5052945;28;20306;-46
2022/09/18 10:55:28;;;;;;;5.10;1.20;;;;;;;13.93;70.15;100354.56;5057575;28;20190;-48
2022/09/18 10:58:13;;;;;;;2.38;0.73;;;;;;;14.10;70.55;100357.09;5048347;28;20207;-50
2022/09/18 11:00:48;;;;;;;2.25;0.90;;;;;;;13.90;70.16;100344.81;5048547;28;20191;-49
2022/09/18 11:03:39;;;;;;;2.75;0.95;;;;;;;13.87;70.62;100347.69;5034093;28;20613;-48
2022/09/18 11:06:26;;;;;;;1.00;0.65;;;;;;;13.48;71.25;100343.69;5060209;28;20220;-48
2022/09/18 11:08:58;;;;;;;2.25;0.80;;;;;;;13.79;69.56;100344.56;5057679;28;20216;-49
2022/09/18 11:11:33;;;;;;;4.22;0.80;;;;;;;13.99;69.48;100338.88;5053800;28;20211;-49
2022/09/18 11:14:15;;;;;;;1.60;0.68;;;;;;;14.12;67.71;100341.69;5037978;28;20245;-50
2022/09/18 11:17:00;;;;;;;3.47;0.70;;;;;;;14.07;67.10;100334.84;5058162;28;20187;-47
2022/09/18 11:19:38;;;;;;;2.67;0.80;;;;;;;14.12;67.17;100322.81;5060379;28;20218;-49
2022/09/18 11:22:43;;;;;;;3.75;0.47;;;;;;;14.17;67.47;100328.81;5053895;28;20184;-49
2022/09/18 11:25:28;;;;;;;5.75;1.00;;;;;;;14.04;68.54;100330.53;5041210;28;20190;-48
2022/09/18 11:28:29;;;;;;;4.03;1.05;;;;;;;13.35;72.37;100335.47;5032769;28;20216;-49
2022/09/18 11:31:00;;;;;;;5.20;0.90;;;;;;;12.81;75.94;100344.78;5047451;28;20246;-48
2022/09/18 11:33:33;;;;;;;4.40;1.17;;;;;;;12.56;77.85;100354.22;5036780;28;20227;-49
2022/09/18 11:36:06;;;;;;;2.28;0.63;;;;;;;12.81;77.84;100355.53;5052288;28;20203;-49
2022/09/18 11:38:39;;;;;;;4.20;1.15;;;;;;;13.09;75.66;100339.59;5050547;28;20693;-47
2022/09/18 11:41:05;;;;;;;1.73;0.45;;;;;;;13.09;75.07;100353.06;5048131;28;20187;-49
2022/09/18 11:43:39;;;;;;;1.35;0.50;;;;;;;12.94;73.97;100344.03;5041635;28;20215;-49
2022/09/18 11:46:27;;;;;;;2.72;0.52;;;;;;;13.57;72.88;100336.91;5047295;28;20234;-49
2022/09/18 11:49:04;;;;;;;2.05;0.60;;;;;;;13.52;72.59;100326.41;5054791;28;20216;-49
2022/09/18 11:51:50;;;;;;;1.92;0.50;;;;;;;13.28;72.93;100338.56;5054962;28;20705;-49
2022/09/18 11:54:38;;;;;;;0.60;0.30;;;;;;;12.97;72.13;100330.41;5072253;28;20713;-48
2022/09/18 11:57:15;;;;;;;1.45;0.50;;;;;;;12.89;72.91;100326.41;5051280;28;20180;-51